Time;durP1;ratioP1;P1;durP2;ratioP2;P2;SDS_P1;SDS_P2;PMS_P1;PMS_P2;Temp;Humidity;BMP_temperature;BMP_pressure;BME280_temperature;BME280_humidity;BME280_pressure;Samples;Min_cycle;Max_cycle;Signal;HPM_P1;HPM_P2
2024/01/05 00:00:31;;;;;;;;;;;7.20;99.90;;;;;;5118262;28;19933;-73
2024/01/05 00:02:59;;;;;;;;;;;7.20;99.90;;;;;;5119668;28;19914;-73
2024/01/05 00:05:25;;;;;;;;;;;7.20;99.90;;;;;;5118119;28;19919;-73
2024/01/05 00:07:51;;;;;;;;;;;7.20;99.90;;;;;;5118136;28;19904;-73
2024/01/05 00:10:16;;;;;;;;;;;7.20;99.90;;;;;;5119588;28;19915;-73
2024/01/05 00:12:42;;;;;;;;;;;7.20;99.90;;;;;;5118051;28;19914;-74
2024/01/05 00:15:07;;;;;;;;;;;7.10;99.90;;;;;;5116072;28;19904;-74
2024/01/05 00:17:33;;;;;;;;;;;7.10;99.90;;;;;;5097676;28;19957;-73
2024/01/05 00:19:59;;;;;;;;;;;7.10;99.90;;;;;;5098946;28;20387;-70
2024/01/05 00:22:24;;;;;;;;;;;7.10;99.90;;;;;;5097233;28;19979;-71
2024/01/05 00:24:50;;;;;;;;;;;7.10;99.90;;;;;;5098847;28;19950;-71
2024/01/05 00:27:15;;;;;;;;;;;7.10;99.90;;;;;;5097502;28;19953;-73
2024/01/05 00:29:41;;;;;;;;;;;7.10;99.90;;;;;;5098822;28;19951;-73
2024/01/05 00:32:06;;;;;;;;;;;7.10;99.90;;;;;;5105666;28;19904;-73
2024/01/05 00:34:32;;;;;;;;;;;7.10;99.90;;;;;;5098747;28;19904;-73
2024/01/05 00:36:57;;;;;;;;;;;7.00;99.90;;;;;;5098658;28;20062;-73
2024/01/05 00:39:23;;;;;;;;;;;7.10;99.90;;;;;;5098742;28;20283;-73
2024/01/05 00:41:48;;;;;;;;;;;7.10;99.90;;;;;;5097354;28;19923;-73
2024/01/05 00:44:14;;;;;;;;;;;7.00;99.90;;;;;;5098504;28;19922;-73
2024/01/05 00:46:39;;;;;;;;;;;7.00;99.90;;;;;;5105481;27;19939;-73
2024/01/05 00:49:05;;;;;;;;;;;7.00;99.90;;;;;;5115338;28;19908;-71
2024/01/05 00:51:31;;;;;;;;;;;7.00;99.90;;;;;;5107602;28;19904;-73
2024/01/05 00:53:57;;;;;;;;;;;7.00;99.90;;;;;;5117633;28;19934;-73
2024/01/05 00:56:22;;;;;;;;;;;6.90;99.90;;;;;;5118710;28;19926;-73
2024/01/05 00:58:48;;;;;;;;;;;7.00;99.90;;;;;;5119053;28;20086;-73
2024/01/05 01:01:14;;;;;;;;;;;6.90;99.90;;;;;;5117783;28;19965;-73
2024/01/05 01:03:39;;;;;;;;;;;6.90;99.90;;;;;;5117501;28;19967;-73
2024/01/05 01:06:05;;;;;;;;;;;6.90;99.90;;;;;;5118674;28;20443;-73
2024/01/05 01:08:31;;;;;;;;;;;6.90;99.90;;;;;;5117445;28;20272;-73
2024/01/05 01:10:56;;;;;;;;;;;6.90;99.90;;;;;;5117370;28;19949;-73
2024/01/05 01:13:22;;;;;;;;;;;6.90;99.90;;;;;;5118711;28;19927;-73
2024/01/05 01:15:47;;;;;;;;;;;6.90;99.90;;;;;;5110917;28;19954;-73
2024/01/05 01:18:13;;;;;;;;;;;6.90;99.90;;;;;;5107645;28;19907;-73
2024/01/05 01:20:39;;;;;;;;;;;6.90;99.90;;;;;;5098958;28;19916;-72
2024/01/05 01:23:04;;;;;;;;;;;6.80;99.90;;;;;;5097758;28;19908;-72
2024/01/05 01:25:30;;;;;;;;;;;6.80;99.90;;;;;;5106119;28;19903;-72
2024/01/05 01:27:55;;;;;;;;;;;6.80;99.90;;;;;;5105978;28;19904;-73
2024/01/05 01:30:21;;;;;;;;;;;6.90;99.90;;;;;;5106195;28;19926;-73
2024/01/05 01:32:46;;;;;;;;;;;6.90;99.90;;;;;;5106027;28;19908;-72
2024/01/05 01:35:12;;;;;;;;;;;6.90;99.90;;;;;;5109756;28;19910;-73
2024/01/05 01:37:37;;;;;;;;;;;6.90;99.90;;;;;;5104307;28;19903;-72
2024/01/05 01:40:04;;;;;;;;;;;6.90;99.90;;;;;;5099223;28;19904;-72
2024/01/05 01:42:31;;;;;;;;;;;6.90;99.90;;;;;;5096984;28;19912;-72
2024/01/05 01:44:56;;;;;;;;;;;6.90;99.90;;;;;;5095635;28;19936;-73
2024/01/05 01:47:22;;;;;;;;;;;6.90;99.90;;;;;;5111977;28;19911;-73
2024/01/05 01:49:48;;;;;;;;;;;6.90;99.90;;;;;;5116352;28;19903;-73
2024/01/05 01:52:14;;;;;;;;;;;6.90;99.90;;;;;;5115929;28;20328;-73
2024/01/05 01:54:40;;;;;;;;;;;6.90;99.90;;;;;;5116166;28;19911;-72
2024/01/05 01:57:05;;;;;;;;;;;6.90;99.90;;;;;;5115427;28;19923;-73
2024/01/05 01:59:31;;;;;;;;;;;6.90;99.90;;;;;;5117526;28;19910;-73
2024/01/05 02:01:57;;;;;;;;;;;6.90;99.90;;;;;;5117288;28;19962;-72
2024/01/05 02:04:24;;;;;;;;;;;6.90;99.90;;;;;;5116075;28;19904;-72
2024/01/05 02:06:49;;;;;;;;;;;6.90;99.90;;;;;;5116969;28;19908;-73
2024/01/05 02:09:15;;;;;;;;;;;6.90;99.90;;;;;;5117325;28;19951;-73
2024/01/05 02:11:41;;;;;;;;;;;6.90;99.90;;;;;;5117170;28;19950;-73
2024/01/05 02:14:06;;;;;;;;;;;6.90;99.90;;;;;;5117226;28;19904;-73
2024/01/05 02:16:32;;;;;;;;;;;6.80;99.90;;;;;;5103275;28;19904;-73
2024/01/05 02:18:57;;;;;;;;;;;6.80;99.90;;;;;;5096781;28;20007;-73
2024/01/05 02:21:24;;;;;;;;;;;6.80;99.90;;;;;;5096282;28;19908;-72
2024/01/05 02:23:49;;;;;;;;;;;6.80;99.90;;;;;;5096734;28;19961;-72
2024/01/05 02:26:15;;;;;;;;;;;6.80;99.90;;;;;;5096717;28;19963;-73
2024/01/05 02:28:41;;;;;;;;;;;6.80;99.90;;;;;;5095289;28;19965;-73
2024/01/05 02:31:06;;;;;;;;;;;6.90;99.90;;;;;;5102036;28;19994;-73
2024/01/05 02:33:32;;;;;;;;;;;6.90;99.90;;;;;;5095383;28;20387;-72
2024/01/05 02:35:57;;;;;;;;;;;6.90;99.90;;;;;;5096323;28;20427;-72
2024/01/05 02:38:23;;;;;;;;;;;7.00;99.90;;;;;;5096276;28;19904;-72
2024/01/05 02:40:48;;;;;;;;;;;7.00;99.90;;;;;;5096390;28;19978;-73
2024/01/05 02:43:14;;;;;;;;;;;7.00;99.90;;;;;;5096269;28;20353;-73
2024/01/05 02:45:39;;;;;;;;;;;7.10;99.90;;;;;;5096354;28;20330;-73
2024/01/05 02:48:05;;;;;;;;;;;7.10;99.90;;;;;;5115051;28;19903;-73
2024/01/05 02:50:31;;;;;;;;;;;7.10;99.90;;;;;;5116623;28;20364;-73
2024/01/05 02:52:56;;;;;;;;;;;7.10;99.90;;;;;;5116306;28;19915;-73
2024/01/05 02:55:22;;;;;;;;;;;7.10;99.90;;;;;;5103317;28;19923;-72
2024/01/05 02:57:47;;;;;;;;;;;7.10;99.90;;;;;;5096227;28;19993;-73
2024/01/05 03:00:13;;;;;;;;;;;7.20;99.90;;;;;;5094871;28;19908;-73
2024/01/05 03:02:38;;;;;;;;;;;7.20;99.90;;;;;;5094529;28;19908;-74
2024/01/05 03:05:05;;;;;;;;;;;7.20;99.90;;;;;;5096102;28;19972;-73
2024/01/05 03:07:30;;;;;;;;;;;7.30;99.90;;;;;;5094632;28;19908;-76
2024/01/05 03:09:56;;;;;;;;;;;7.30;99.90;;;;;;5100208;28;19904;-75
2024/01/05 03:12:22;;;;;;;;;;;7.30;99.90;;;;;;5098815;28;19908;-76
2024/01/05 03:14:47;;;;;;;;;;;7.40;99.90;;;;;;5102068;28;19907;-76
2024/01/05 03:17:13;;;;;;;;;;;7.40;99.90;;;;;;5099580;28;19908;-76
2024/01/05 03:19:38;;;;;;;;;;;7.40;99.90;;;;;;5091298;28;19912;-76
2024/01/05 03:22:04;;;;;;;;;;;7.40;99.90;;;;;;5099628;28;20321;-76
2024/01/05 03:24:29;;;;;;;;;;;7.40;99.90;;;;;;5100081;28;19904;-76
2024/01/05 03:26:55;;;;;;;;;;;7.40;99.90;;;;;;5098556;28;19905;-76
2024/01/05 03:29:20;;;;;;;;;;;7.50;99.90;;;;;;5100072;28;19954;-76
2024/01/05 03:31:46;;;;;;;;;;;7.50;99.90;;;;;;5106570;28;19904;-75
2024/01/05 03:34:12;;;;;;;;;;;7.50;99.90;;;;;;5098588;28;19908;-76
2024/01/05 03:36:38;;;;;;;;;;;7.50;99.90;;;;;;5099591;28;19914;-75
2024/01/05 03:39:06;;;;;;;;;;;7.60;99.90;;;;;;5098499;28;19967;-75
2024/01/05 03:41:32;;;;;;;;;;;7.50;99.90;;;;;;5099646;28;19930;-75
2024/01/05 03:43:57;;;;;;;;;;;7.50;99.90;;;;;;5099850;28;19908;-75
2024/01/05 03:46:23;;;;;;;;;;;7.50;99.90;;;;;;5104314;28;20287;-75
2024/01/05 03:48:49;;;;;;;;;;;7.50;99.90;;;;;;5118713;28;19957;-75
2024/01/05 03:51:14;;;;;;;;;;;7.40;99.90;;;;;;5119773;28;19904;-75
2024/01/05 03:53:40;;;;;;;;;;;7.40;99.90;;;;;;5118475;28;19904;-75
2024/01/05 03:56:06;;;;;;;;;;;7.40;99.90;;;;;;5119677;28;20334;-75
2024/01/05 03:58:31;;;;;;;;;;;7.40;99.90;;;;;;5118379;28;20360;-75
2024/01/05 04:00:57;;;;;;;;;;;7.40;99.90;;;;;;5118036;28;19956;-75
2024/01/05 04:03:22;;;;;;;;;;;7.40;99.90;;;;;;5118197;28;19907;-75
2024/01/05 04:05:48;;;;;;;;;;;7.40;99.90;;;;;;5117390;28;19907;-75
2024/01/05 04:08:13;;;;;;;;;;;7.40;99.90;;;;;;5117615;28;19911;-76
2024/01/05 04:10:39;;;;;;;;;;;7.40;99.90;;;;;;5119600;28;19912;-74
2024/01/05 04:13:05;;;;;;;;;;;7.40;99.90;;;;;;5119387;28;19904;-75
2024/01/05 04:15:37;;;;;;;;;;;7.40;99.90;;;;;;5113822;28;19904;-75
2024/01/05 04:18:03;;;;;;;;;;;7.40;99.90;;;;;;5098843;28;19999;-75
2024/01/05 04:20:28;;;;;;;;;;;7.40;99.90;;;;;;5096747;28;20022;-76
2024/01/05 04:22:54;;;;;;;;;;;7.40;99.90;;;;;;5097458;28;19904;-74
2024/01/05 04:25:19;;;;;;;;;;;7.30;99.90;;;;;;5097526;28;19907;-76
2024/01/05 04:27:45;;;;;;;;;;;7.30;99.90;;;;;;5097497;28;20435;-75
2024/01/05 04:30:11;;;;;;;;;;;7.30;99.90;;;;;;5098826;28;20444;-75
2024/01/05 04:32:37;;;;;;;;;;;7.30;99.90;;;;;;5105617;28;19929;-75
2024/01/05 04:35:03;;;;;;;;;;;7.30;99.90;;;;;;5103037;28;19915;-76
2024/01/05 04:37:28;;;;;;;;;;;7.30;99.90;;;;;;5104454;28;19911;-75
2024/01/05 04:39:54;;;;;;;;;;;7.30;99.90;;;;;;5097258;28;19908;-75
2024/01/05 04:42:20;;;;;;;;;;;7.30;99.90;;;;;;5098546;28;20322;-75
2024/01/05 04:44:45;;;;;;;;;;;7.30;99.90;;;;;;5097261;28;19915;-75
2024/01/05 04:47:11;;;;;;;;;;;7.30;99.90;;;;;;5109944;28;20394;-75
2024/01/05 04:49:36;;;;;;;;;;;7.20;99.90;;;;;;5118634;28;19911;-76
2024/01/05 04:52:02;;;;;;;;;;;7.20;99.90;;;;;;5118474;28;19927;-75
2024/01/05 04:54:27;;;;;;;;;;;7.20;99.90;;;;;;5117235;28;20318;-75
2024/01/05 04:56:53;;;;;;;;;;;7.20;99.90;;;;;;5117129;28;19915;-75
2024/01/05 04:59:19;;;;;;;;;;;7.20;99.90;;;;;;5118430;28;19946;-75
2024/01/05 05:01:45;;;;;;;;;;;7.20;99.90;;;;;;5107112;28;19951;-75
2024/01/05 05:04:13;;;;;;;;;;;7.20;99.90;;;;;;5096751;28;19918;-76
2024/01/05 05:06:39;;;;;;;;;;;7.20;99.90;;;;;;5096397;28;19915;-75
2024/01/05 05:09:04;;;;;;;;;;;7.20;99.90;;;;;;5096588;28;19904;-76
2024/01/05 05:11:30;;;;;;;;;;;7.20;99.90;;;;;;5096176;28;20045;-75
2024/01/05 05:13:55;;;;;;;;;;;7.20;99.90;;;;;;5096479;28;19961;-75
2024/01/05 05:16:21;;;;;;;;;;;7.30;99.90;;;;;;5100768;28;20481;-75
2024/01/05 05:18:48;;;;;;;;;;;7.30;99.90;;;;;;5096414;28;19908;-75
2024/01/05 05:21:13;;;;;;;;;;;7.30;99.90;;;;;;5096175;28;19967;-75
2024/01/05 05:23:39;;;;;;;;;;;7.40;99.90;;;;;;5097568;28;20383;-75
2024/01/05 05:26:05;;;;;;;;;;;7.40;99.90;;;;;;5096416;28;19958;-75
2024/01/05 05:28:31;;;;;;;;;;;7.40;99.90;;;;;;5096142;28;19915;-75
2024/01/05 05:30:57;;;;;;;;;;;7.40;99.90;;;;;;5102166;28;20452;-75
2024/01/05 05:33:22;;;;;;;;;;;7.40;99.90;;;;;;5097765;28;20270;-74
2024/01/05 05:35:48;;;;;;;;;;;7.30;99.90;;;;;;5097373;28;20371;-75
2024/01/05 05:38:14;;;;;;;;;;;7.30;99.90;;;;;;5096286;28;20288;-75
2024/01/05 05:40:39;;;;;;;;;;;7.30;99.90;;;;;;5097367;28;20299;-75
2024/01/05 05:43:05;;;;;;;;;;;7.30;99.90;;;;;;5096001;28;20030;-74
2024/01/05 05:45:30;;;;;;;;;;;7.40;99.90;;;;;;5095933;28;19999;-76
2024/01/05 05:47:56;;;;;;;;;;;7.40;99.90;;;;;;5114765;28;19907;-75
2024/01/05 05:50:21;;;;;;;;;;;7.50;99.90;;;;;;5117465;28;19911;-75
2024/01/05 05:52:47;;;;;;;;;;;7.50;99.90;;;;;;5116190;28;19910;-76
2024/01/05 05:55:12;;;;;;;;;;;7.60;99.90;;;;;;5116083;28;20421;-76
2024/01/05 05:57:39;;;;;;;;;;;7.60;99.90;;;;;;5116194;28;19915;-76
2024/01/05 06:00:05;;;;;;;;;;;7.60;99.90;;;;;;5117464;28;19984;-75
2024/01/05 06:02:31;;;;;;;;;;;7.60;99.90;;;;;;5117414;28;19907;-76
2024/01/05 06:04:56;;;;;;;;;;;7.60;99.90;;;;;;5117246;28;19907;-75
2024/01/05 06:07:23;;;;;;;;;;;7.70;99.90;;;;;;5117169;28;19903;-75
2024/01/05 06:09:48;;;;;;;;;;;7.70;99.90;;;;;;5117402;28;19952;-75
2024/01/05 06:12:14;;;;;;;;;;;7.70;99.90;;;;;;5115788;28;19990;-75
2024/01/05 06:14:39;;;;;;;;;;;7.70;99.90;;;;;;5115839;28;19994;-76
2024/01/05 06:17:05;;;;;;;;;;;7.70;99.90;;;;;;5097773;28;20268;-75
2024/01/05 06:19:30;;;;;;;;;;;7.70;99.90;;;;;;5096737;28;19912;-74
2024/01/05 06:21:57;;;;;;;;;;;7.70;99.90;;;;;;5096245;28;19977;-74
2024/01/05 06:24:23;;;;;;;;;;;7.70;99.90;;;;;;5095583;28;19904;-75
2024/01/05 06:26:48;;;;;;;;;;;7.70;99.90;;;;;;5095207;28;19919;-75
2024/01/05 06:29:14;;;;;;;;;;;7.70;99.90;;;;;;5096695;28;19904;-75
2024/01/05 06:31:39;;;;;;;;;;;7.70;99.90;;;;;;5102315;28;19904;-74
2024/01/05 06:34:05;;;;;;;;;;;7.70;99.90;;;;;;5095216;28;19904;-75
2024/01/05 06:36:30;;;;;;;;;;;7.70;99.90;;;;;;5096156;28;20474;-74
2024/01/05 06:38:56;;;;;;;;;;;7.70;99.90;;;;;;5095178;28;19944;-76
2024/01/05 06:41:21;;;;;;;;;;;7.70;99.90;;;;;;5094174;28;20113;-75
2024/01/05 06:43:47;;;;;;;;;;;7.70;99.90;;;;;;5097306;28;19912;-76
2024/01/05 06:46:13;;;;;;;;;;;7.60;99.90;;;;;;5095701;28;19994;-76
2024/01/05 06:48:38;;;;;;;;;;;7.60;99.90;;;;;;5096855;28;19959;-75
2024/01/05 06:51:04;;;;;;;;;;;7.60;99.90;;;;;;5089711;28;20023;-75
2024/01/05 06:53:29;;;;;;;;;;;7.60;99.90;;;;;;5091589;28;19914;-75
2024/01/05 06:55:55;;;;;;;;;;;7.60;99.90;;;;;;5091414;28;20305;-75
2024/01/05 06:58:21;;;;;;;;;;;7.60;99.90;;;;;;5098729;28;19965;-78
2024/01/05 07:00:47;;;;;;;;;;;7.60;99.90;;;;;;5095724;28;19915;-78
2024/01/05 07:03:13;;;;;;;;;;;7.60;99.90;;;;;;5110260;28;19907;-78
2024/01/05 07:05:38;;;;;;;;;;;7.70;99.90;;;;;;5092721;28;19983;-78
2024/01/05 07:08:07;;;;;;;;;;;7.70;99.90;;;;;;5091292;28;21059;-78
2024/01/05 07:10:33;;;;;;;;;;;7.70;99.90;;;;;;5106177;28;20591;-78
2024/01/05 07:12:59;;;;;;;;;;;7.70;99.90;;;;;;5104934;28;19962;-79
2024/01/05 07:15:24;;;;;;;;;;;7.70;99.90;;;;;;5092550;28;20363;-78
2024/01/05 07:17:50;;;;;;;;;;;7.80;99.90;;;;;;5091375;28;20372;-78
2024/01/05 07:20:15;;;;;;;;;;;7.80;99.90;;;;;;5098622;28;19919;-76
2024/01/05 07:22:41;;;;;;;;;;;7.80;99.90;;;;;;5091246;28;19904;-77
2024/01/05 07:25:09;;;;;;;;;;;7.80;99.90;;;;;;5089732;28;20312;-77
2024/01/05 07:27:36;;;;;;;;;;;7.90;99.90;;;;;;5091260;28;20315;-77
2024/01/05 07:30:02;;;;;;;;;;;8.00;99.90;;;;;;5091437;28;19947;-76
2024/01/05 07:32:28;;;;;;;;;;;8.00;99.90;;;;;;5107830;28;19922;-78
2024/01/05 07:34:53;;;;;;;;;;;8.10;99.90;;;;;;5108840;28;19907;-76
2024/01/05 07:37:19;;;;;;;;;;;8.10;99.90;;;;;;5109376;28;19911;-78
2024/01/05 07:39:45;;;;;;;;;;;8.10;99.90;;;;;;5092204;28;19908;-78
2024/01/05 07:42:10;;;;;;;;;;;8.10;99.90;;;;;;5091205;28;19961;-77
2024/01/05 07:44:36;;;;;;;;;;;8.10;99.90;;;;;;5089565;28;20668;-79
2024/01/05 07:47:01;;;;;;;;;;;8.10;99.90;;;;;;5100379;28;19951;-78
2024/01/05 07:49:27;;;;;;;;;;;8.10;99.90;;;;;;5091185;28;20306;-81
2024/01/05 07:51:53;;;;;;;;;;;8.10;99.90;;;;;;5090212;28;19950;-77
2024/01/05 07:54:18;;;;;;;;;;;8.10;99.90;;;;;;5092086;28;20755;-82
2024/01/05 07:56:44;;;;;;;;;;;8.10;99.90;;;;;;5106693;28;20052;-81
2024/01/05 07:59:09;;;;;;;;;;;8.00;99.90;;;;;;5102142;28;19908;-79
2024/01/05 08:01:35;;;;;;;;;;;8.00;99.90;;;;;;5106108;28;19911;-80
2024/01/05 08:04:01;;;;;;;;;;;8.10;99.90;;;;;;5101873;28;19912;-80
2024/01/05 08:06:26;;;;;;;;;;;8.10;99.90;;;;;;5104509;28;20020;-79
2024/01/05 08:08:52;;;;;;;;;;;8.00;99.90;;;;;;5100384;28;19912;-79
2024/01/05 08:11:17;;;;;;;;;;;8.00;99.90;;;;;;5102410;28;19944;-78
2024/01/05 08:13:44;;;;;;;;;;;8.00;99.90;;;;;;5094376;28;19961;-78
2024/01/05 08:16:09;;;;;;;;;;;8.00;99.90;;;;;;5104030;28;19915;-80
2024/01/05 08:18:35;;;;;;;;;;;8.00;99.90;;;;;;5117868;28;19907;-81
2024/01/05 08:21:02;;;;;;;;;;;8.00;99.90;;;;;;5106502;27;20754;-81
2024/01/05 08:23:31;;;;;;;;;;;8.00;99.90;;;;;;5111584;28;19908;-80
2024/01/05 08:25:57;;;;;;;;;;;8.00;99.90;;;;;;5112650;28;19911;-79
2024/01/05 08:28:23;;;;;;;;;;;8.00;99.90;;;;;;5111837;28;19908;-80
2024/01/05 08:30:48;;;;;;;;;;;8.00;99.90;;;;;;5115741;28;19903;-77
2024/01/05 08:33:14;;;;;;;;;;;8.00;99.90;;;;;;5113738;28;20273;-80
2024/01/05 08:35:40;;;;;;;;;;;8.00;99.90;;;;;;5115901;28;20044;-79
2024/01/05 08:38:05;;;;;;;;;;;8.00;99.90;;;;;;5116006;28;19994;-80
2024/01/05 08:40:31;;;;;;;;;;;8.00;99.90;;;;;;5114433;28;19915;-78
2024/01/05 08:42:57;;;;;;;;;;;8.00;99.90;;;;;;5112763;28;20012;-80
2024/01/05 08:45:23;;;;;;;;;;;8.00;99.90;;;;;;5115374;28;19914;-80
2024/01/05 08:47:49;;;;;;;;;;;8.00;99.90;;;;;;5111254;28;20368;-79
2024/01/05 08:50:17;;;;;;;;;;;7.90;99.90;;;;;;5113671;28;19904;-80
2024/01/05 08:52:44;;;;;;;;;;;7.90;99.90;;;;;;5111647;28;19907;-85
2024/01/05 08:55:09;;;;;;;;;;;8.00;99.90;;;;;;5112487;28;20423;-79
2024/01/05 08:57:35;;;;;;;;;;;7.90;99.90;;;;;;5111102;28;19934;-80
2024/01/05 09:00:01;;;;;;;;;;;8.00;99.90;;;;;;5111283;28;19908;-78
2024/01/05 09:02:26;;;;;;;;;;;8.00;99.90;;;;;;5111681;28;19919;-80
2024/01/05 09:04:52;;;;;;;;;;;8.00;99.90;;;;;;5115527;28;19996;-80
2024/01/05 09:07:18;;;;;;;;;;;8.00;99.90;;;;;;5110359;28;19907;-79
2024/01/05 09:09:43;;;;;;;;;;;8.00;99.90;;;;;;5113561;28;19912;-81
2024/01/05 09:12:09;;;;;;;;;;;8.00;99.90;;;;;;5113179;28;19916;-81
2024/01/05 09:14:36;;;;;;;;;;;7.90;99.90;;;;;;5112086;28;19904;-79
2024/01/05 09:17:03;;;;;;;;;;;7.90;99.90;;;;;;5115012;28;20375;-80
2024/01/05 09:19:29;;;;;;;;;;;7.90;99.90;;;;;;5116009;28;19963;-80
2024/01/05 09:21:54;;;;;;;;;;;8.00;99.90;;;;;;5113072;28;20387;-78
2024/01/05 09:24:20;;;;;;;;;;;8.00;99.90;;;;;;5116444;28;19925;-79
2024/01/05 09:26:47;;;;;;;;;;;8.00;99.90;;;;;;5113926;28;19904;-79
2024/01/05 09:29:12;;;;;;;;;;;8.00;99.90;;;;;;5116406;28;19904;-78
2024/01/05 09:31:38;;;;;;;;;;;8.00;99.90;;;;;;5115125;28;19903;-77
2024/01/05 09:34:04;;;;;;;;;;;8.00;99.90;;;;;;5116321;28;19903;-78
2024/01/05 09:36:29;;;;;;;;;;;8.00;99.90;;;;;;5115522;28;19907;-78
2024/01/05 09:38:55;;;;;;;;;;;8.00;99.90;;;;;;5116394;28;20314;-79
2024/01/05 09:41:20;;;;;;;;;;;8.00;99.90;;;;;;5114509;28;19914;-79
2024/01/05 09:43:47;;;;;;;;;;;8.00;99.90;;;;;;5116425;28;19904;-78
2024/01/05 09:46:13;;;;;;;;;;;8.00;99.90;;;;;;5113119;28;19954;-79
2024/01/05 09:48:38;;;;;;;;;;;8.00;99.90;;;;;;5114124;28;19904;-81
2024/01/05 09:51:06;;;;;;;;;;;8.00;99.90;;;;;;5112304;28;20324;-78
2024/01/05 09:53:31;;;;;;;;;;;8.00;99.90;;;;;;5111215;27;19916;-80
2024/01/05 09:55:57;;;;;;;;;;;8.00;99.90;;;;;;5110284;28;19920;-80
2024/01/05 09:58:23;;;;;;;;;;;8.00;99.90;;;;;;5115397;28;19908;-80
2024/01/05 10:00:49;;;;;;;;;;;8.00;99.90;;;;;;5109673;28;20377;-79
2024/01/05 10:03:20;;;;;;;;;;;8.00;99.90;;;;;;5115172;28;19903;-79
2024/01/05 10:05:49;;;;;;;;;;;8.00;99.90;;;;;;5111281;28;20391;-79
2024/01/05 10:08:14;;;;;;;;;;;8.00;99.90;;;;;;5113575;28;19982;-80
2024/01/05 10:10:52;;;;;;;;;;;8.00;99.90;;;;;;5111735;28;20694;-81
2024/01/05 10:13:18;;;;;;;;;;;8.00;99.90;;;;;;5109846;28;19908;-77
2024/01/05 10:15:56;;;;;;;;;;;8.00;99.90;;;;;;5111581;28;20420;-77
2024/01/05 10:18:22;;;;;;;;;;;8.10;99.90;;;;;;5112470;28;19911;-76
2024/01/05 10:20:48;;;;;;;;;;;8.10;99.90;;;;;;5110038;28;19912;-79
2024/01/05 10:23:15;;;;;;;;;;;8.10;99.90;;;;;;5112239;28;20371;-79
2024/01/05 10:25:41;;;;;;;;;;;8.10;99.90;;;;;;5110698;28;19904;-80
2024/01/05 10:28:23;;;;;;;;;;;8.10;99.90;;;;;;5111189;28;19914;-80
2024/01/05 10:30:49;;;;;;;;;;;8.10;99.90;;;;;;5112983;28;19907;-78
2024/01/05 10:33:16;;;;;;;;;;;8.10;99.90;;;;;;5105666;28;19916;-78
2024/01/05 10:35:42;;;;;;;;;;;8.10;99.90;;;;;;5110524;28;19908;-76
2024/01/05 10:38:11;;;;;;;;;;;8.10;99.90;;;;;;5110870;28;20351;-78
2024/01/05 10:40:37;;;;;;;;;;;8.10;99.90;;;;;;5110261;28;19908;-78
2024/01/05 10:43:16;;;;;;;;;;;8.10;99.90;;;;;;5112500;28;19919;-80
2024/01/05 10:45:42;;;;;;;;;;;8.10;99.90;;;;;;5104975;28;19975;-79
2024/01/05 10:48:08;;;;;;;;;;;8.20;99.90;;;;;;5112210;28;19911;-79
2024/01/05 10:50:36;;;;;;;;;;;8.30;99.90;;;;;;5112979;28;19908;-79
2024/01/05 10:53:02;;;;;;;;;;;8.30;99.90;;;;;;5112924;28;19961;-79
2024/01/05 10:55:28;;;;;;;;;;;8.40;99.90;;;;;;5110728;28;19923;-79
2024/01/05 10:57:54;;;;;;;;;;;8.40;99.90;;;;;;5111256;28;19919;-76
2024/01/05 11:00:24;;;;;;;;;;;8.40;99.90;;;;;;5110254;28;19919;-81
2024/01/05 11:02:50;;;;;;;;;;;8.50;99.90;;;;;;5103519;28;20366;-79
2024/01/05 11:05:16;;;;;;;;;;;8.50;99.90;;;;;;5106644;28;20316;-78
2024/01/05 11:07:42;;;;;;;;;;;8.60;99.90;;;;;;5107226;28;19943;-77
2024/01/05 11:10:08;;;;;;;;;;;8.70;99.90;;;;;;5099193;28;19908;-79
2024/01/05 11:12:52;;;;;;;;;;;8.80;99.90;;;;;;5109124;28;19912;-77
2024/01/05 11:15:30;;;;;;;;;;;8.80;99.90;;;;;;5099656;28;20360;-78
2024/01/05 11:18:05;;;;;;;;;;;8.90;99.90;;;;;;5110426;28;20533;-77
2024/01/05 11:21:02;;;;;;;;;;;8.90;99.90;;;;;;5104411;28;19915;-78
2024/01/05 11:23:28;;;;;;;;;;;8.90;99.90;;;;;;5102891;28;19995;-79
2024/01/05 11:25:55;;;;;;;;;;;9.00;99.90;;;;;;5105457;28;19984;-79
2024/01/05 11:28:38;;;;;;;;;;;9.00;99.90;;;;;;5104645;28;19908;-79
2024/01/05 11:31:04;;;;;;;;;;;9.10;99.90;;;;;;5109052;28;19980;-77
2024/01/05 11:33:45;;;;;;;;;;;9.10;99.90;;;;;;5106723;28;19920;-79
2024/01/05 11:36:12;;;;;;;;;;;9.00;99.90;;;;;;5105651;28;21124;-77
2024/01/05 11:38:43;;;;;;;;;;;9.00;99.90;;;;;;5111908;28;19982;-79
2024/01/05 11:41:16;;;;;;;;;;;9.00;99.90;;;;;;5109869;28;20475;-78
2024/01/05 11:43:41;;;;;;;;;;;9.00;99.90;;;;;;5106440;28;19960;-78
2024/01/05 11:46:07;;;;;;;;;;;8.90;99.90;;;;;;5109277;28;19908;-78
2024/01/05 11:48:35;;;;;;;;;;;8.80;99.90;;;;;;5105847;28;19908;-78
2024/01/05 11:51:10;;;;;;;;;;;8.70;99.90;;;;;;5107375;28;19911;-78
2024/01/05 11:53:36;;;;;;;;;;;8.60;99.90;;;;;;5107138;28;19908;-78
2024/01/05 11:56:14;;;;;;;;;;;8.60;99.90;;;;;;5104307;28;20406;-77
2024/01/05 11:58:42;;;;;;;;;;;8.60;99.90;;;;;;5106526;28;20382;-77
2024/01/05 12:01:12;;;;;;;;;;;8.50;99.90;;;;;;5109080;28;20594;-78
2024/01/05 12:03:40;;;;;;;;;;;8.40;99.90;;;;;;5104539;28;19908;-78
2024/01/05 12:06:07;;;;;;;;;;;8.50;99.90;;;;;;5109209;28;19907;-78
2024/01/05 12:08:32;;;;;;;;;;;8.40;99.90;;;;;;5107968;28;19956;-78
2024/01/05 12:11:08;;;;;;;;;;;8.40;99.90;;;;;;5106163;28;19912;-77
2024/01/05 12:13:34;;;;;;;;;;;8.40;99.90;;;;;;5108668;28;19929;-78
2024/01/05 12:16:02;;;;;;;;;;;8.40;99.90;;;;;;5108947;28;19908;-76
2024/01/05 12:18:30;;;;;;;;;;;8.40;99.90;;;;;;5109465;28;20045;-79
2024/01/05 12:21:03;;;;;;;;;;;8.40;99.90;;;;;;5111148;28;19919;-80
2024/01/05 12:23:31;;;;;;;;;;;8.50;99.90;;;;;;5108985;28;19908;-77
2024/01/05 12:25:57;;;;;;;;;;;8.50;99.90;;;;;;5108499;28;19911;-80
2024/01/05 12:28:22;;;;;;;;;;;8.50;99.90;;;;;;5102713;28;19976;-78
2024/01/05 12:30:49;;;;;;;;;;;8.60;99.90;;;;;;5105276;28;19907;-78
2024/01/05 12:33:14;;;;;;;;;;;8.70;99.90;;;;;;5110992;28;19904;-79
2024/01/05 12:35:40;;;;;;;;;;;8.70;99.90;;;;;;5103995;28;19915;-77
2024/01/05 12:38:05;;;;;;;;;;;8.80;99.90;;;;;;5102629;28;19922;-77
2024/01/05 12:40:31;;;;;;;;;;;8.80;99.90;;;;;;5107039;28;19919;-78
2024/01/05 12:42:57;;;;;;;;;;;8.70;99.90;;;;;;5102543;28;19908;-80
2024/01/05 12:45:23;;;;;;;;;;;8.70;99.90;;;;;;5107711;28;20636;-80
2024/01/05 12:47:51;;;;;;;;;;;8.60;99.90;;;;;;5104106;28;20363;-81
2024/01/05 12:50:24;;;;;;;;;;;8.60;99.90;;;;;;5107996;28;19908;-80
2024/01/05 12:52:49;;;;;;;;;;;8.50;99.90;;;;;;5110319;28;19908;-77
2024/01/05 12:55:31;;;;;;;;;;;8.50;99.90;;;;;;5104586;28;20014;-82
2024/01/05 12:58:01;;;;;;;;;;;8.40;99.90;;;;;;5108671;28;19908;-79
2024/01/05 13:00:26;;;;;;;;;;;8.40;99.90;;;;;;5110744;28;19908;-81
2024/01/05 13:02:52;;;;;;;;;;;8.40;99.90;;;;;;5109570;28;19995;-80
2024/01/05 13:05:27;;;;;;;;;;;8.30;99.90;;;;;;5112570;28;19953;-81
2024/01/05 13:07:54;;;;;;;;;;;8.30;99.90;;;;;;5117379;28;19904;-83
2024/01/05 13:10:20;;;;;;;;;;;8.30;99.90;;;;;;5110819;28;19914;-80
2024/01/05 13:12:46;;;;;;;;;;;8.30;99.90;;;;;;5114844;28;19904;-80
2024/01/05 13:15:12;;;;;;;;;;;8.30;99.90;;;;;;5114633;28;20624;-81
2024/01/05 13:17:46;;;;;;;;;;;8.30;99.90;;;;;;5114697;28;19946;-83
2024/01/05 13:20:24;;;;;;;;;;;8.30;99.90;;;;;;5114274;28;19904;-82
2024/01/05 13:22:51;;;;;;;;;;;8.30;99.90;;;;;;5111063;28;19907;-82
2024/01/05 13:25:16;;;;;;;;;;;8.30;99.90;;;;;;5115304;28;19903;-81
2024/01/05 13:27:42;;;;;;;;;;;8.40;99.90;;;;;;5117532;27;19915;-82
2024/01/05 13:30:13;;;;;;;;;;;8.40;99.90;;;;;;5108635;28;20789;-81
2024/01/05 13:32:42;;;;;;;;;;;8.40;99.90;;;;;;5113109;28;19954;-79
2024/01/05 13:35:08;;;;;;;;;;;8.50;99.90;;;;;;5112496;28;19908;-80
2024/01/05 13:37:33;;;;;;;;;;;8.40;99.90;;;;;;5113468;28;19960;-80
2024/01/05 13:39:59;;;;;;;;;;;8.40;99.90;;;;;;5114823;28;19911;-79
2024/01/05 13:42:26;;;;;;;;;;;8.40;99.90;;;;;;5111841;28;19912;-85
2024/01/05 13:44:51;;;;;;;;;;;8.40;99.90;;;;;;5114014;28;19908;-86
2024/01/05 13:47:17;;;;;;;;;;;8.40;99.90;;;;;;5114044;28;20530;-83
2024/01/05 13:49:43;;;;;;;;;;;8.40;99.90;;;;;;5112659;28;19907;-81
2024/01/05 13:52:08;;;;;;;;;;;8.40;99.90;;;;;;5114477;28;20015;-84
2024/01/05 13:54:35;;;;;;;;;;;8.40;99.90;;;;;;5109677;28;19986;-82
2024/01/05 13:57:01;;;;;;;;;;;8.40;99.90;;;;;;5112413;28;19969;-82
2024/01/05 13:59:27;;;;;;;;;;;8.40;99.90;;;;;;5116430;28;19957;-85
2024/01/05 14:01:53;;;;;;;;;;;8.40;99.90;;;;;;5115640;28;19908;-82
2024/01/05 14:04:18;;;;;;;;;;;8.40;99.90;;;;;;5109581;28;19914;-83
2024/01/05 14:06:44;;;;;;;;;;;8.40;99.90;;;;;;5112624;28;19904;-81
2024/01/05 14:09:09;;;;;;;;;;;8.40;99.90;;;;;;5113255;28;19994;-84
2024/01/05 14:11:35;;;;;;;;;;;8.30;99.90;;;;;;5108381;28;19990;-82
2024/01/05 14:14:00;;;;;;;;;;;8.40;99.90;;;;;;5114642;28;19904;-82
2024/01/05 14:16:26;;;;;;;;;;;8.30;99.90;;;;;;5113894;28;19949;-78
2024/01/05 14:18:51;;;;;;;;;;;8.40;99.90;;;;;;5111953;28;19910;-79
2024/01/05 14:21:20;;;;;;;;;;;8.40;99.90;;;;;;5110539;28;19914;-81
2024/01/05 14:23:46;;;;;;;;;;;8.40;99.90;;;;;;5111973;28;19912;-82
2024/01/05 14:26:11;;;;;;;;;;;8.50;99.90;;;;;;5110774;28;19970;-80